Time;durP1;ratioP1;P1;durP2;ratioP2;P2;SDS_P1;SDS_P2;PMS_P1;PMS_P2;Temp;Humidity;BMP_temperature;BMP_pressure;BME280_temperature;BME280_humidity;BME280_pressure;Samples;Min_cycle;Max_cycle;Signal;HPM_P1;HPM_P2
2021/12/06 00:00:47;;;;;;;16.75;11.00;;;;;;;2.57;100.00;100847.63;5037171;28;20581;-72
2021/12/06 00:03:19;;;;;;;20.17;11.07;;;;;;;2.57;100.00;100852.75;5031236;28;20045;-72
2021/12/06 00:05:44;;;;;;;19.25;11.75;;;;;;;2.56;100.00;100854.47;5031172;28;20068;-73
2021/12/06 00:08:10;;;;;;;15.32;10.63;;;;;;;2.57;100.00;100858.66;5036745;28;20126;-73
2021/12/06 00:10:37;;;;;;;17.75;11.57;;;;;;;2.58;100.00;100860.31;5036038;28;20037;-72
2021/12/06 00:13:02;;;;;;;19.15;11.77;;;;;;;2.58;100.00;100854.38;5032825;28;20033;-72
2021/12/06 00:15:32;;;;;;;19.83;10.98;;;;;;;2.57;100.00;100848.44;5030894;28;20025;-72
2021/12/06 00:17:58;;;;;;;19.90;12.00;;;;;;;2.53;100.00;100850.38;5038790;28;20030;-72
2021/12/06 00:20:25;;;;;;;17.38;9.77;;;;;;;2.52;100.00;100842.78;5037073;28;20025;-72
2021/12/06 00:22:50;;;;;;;18.67;10.60;;;;;;;2.50;100.00;100848.00;5035219;28;20034;-72
2021/12/06 00:25:16;;;;;;;17.00;9.55;;;;;;;2.48;100.00;100843.94;5034604;28;20076;-72
2021/12/06 00:27:42;;;;;;;15.77;9.82;;;;;;;2.47;100.00;100853.34;5032757;28;20033;-72
2021/12/06 00:30:11;;;;;;;15.40;9.52;;;;;;;2.51;99.97;100859.91;5035505;28;20607;-72
2021/12/06 00:32:39;;;;;;;13.13;8.80;;;;;;;2.46;99.90;100861.94;5034433;28;20033;-72
2021/12/06 00:35:06;;;;;;;16.65;9.77;;;;;;;2.44;99.99;100863.78;5034991;28;20033;-73
2021/12/06 00:37:41;;;;;;;12.82;8.63;;;;;;;2.45;99.99;100867.16;5014333;28;20395;-73
2021/12/06 00:40:07;;;;;;;14.48;9.20;;;;;;;2.45;99.95;100879.97;5028248;28;20446;-72
2021/12/06 00:42:33;;;;;;;15.13;10.25;;;;;;;2.45;100.00;100877.41;5036385;28;20059;-72
2021/12/06 00:45:02;;;;;;;18.85;10.40;;;;;;;2.44;100.00;100881.69;5036033;28;20411;-72
2021/12/06 00:47:27;;;;;;;16.20;9.27;;;;;;;2.44;100.00;100886.00;5016212;28;20024;-72
2021/12/06 00:49:54;;;;;;;15.05;9.82;;;;;;;2.44;100.00;100886.00;5039175;28;20029;-72
2021/12/06 00:52:20;;;;;;;17.25;9.77;;;;;;;2.44;100.00;100886.00;5033937;28;20079;-72
2021/12/06 00:54:47;;;;;;;15.35;9.93;;;;;;;2.44;100.00;100891.94;5036676;28;20026;-73
2021/12/06 00:57:13;;;;;;;15.90;10.30;;;;;;;2.44;100.00;100894.50;5029096;28;20037;-73
2021/12/06 00:59:40;;;;;;;16.35;10.27;;;;;;;2.44;100.00;100897.06;5034840;28;20064;-72
2021/12/06 01:02:09;;;;;;;16.45;10.68;;;;;;;2.44;100.00;100902.19;5033134;28;20029;-72
2021/12/06 01:04:37;;;;;;;18.50;10.60;;;;;;;2.45;100.00;100908.13;5035684;28;20391;-72
2021/12/06 01:07:04;;;;;;;19.35;11.60;;;;;;;2.45;100.00;100914.06;5030348;28;20033;-72
2021/12/06 01:09:30;;;;;;;19.20;11.10;;;;;;;2.44;100.00;100917.53;5032443;28;20037;-72
2021/12/06 01:11:55;;;;;;;20.00;11.30;;;;;;;2.43;100.00;100917.63;5030001;28;20025;-71
2021/12/06 01:14:22;;;;;;;18.27;11.30;;;;;;;2.42;100.00;100916.00;5010673;28;20017;-72
2021/12/06 01:16:48;;;;;;;18.42;11.75;;;;;;;2.41;100.00;100915.19;5028726;28;20098;-72
2021/12/06 01:19:15;;;;;;;18.70;11.13;;;;;;;2.42;100.00;100927.06;5032301;28;20136;-73
2021/12/06 01:24:30;;;;;;;15.55;10.15;;;;;;;2.42;100.00;100926.25;4985784;28;20053;-72
2021/12/06 01:32:22;;;;;;;19.98;10.48;;;;;;;2.38;100.00;100937.63;5031034;28;20040;-72
2021/12/06 01:40:22;;;;;;;15.32;9.60;;;;;;;2.31;100.00;100940.53;5034120;28;20033;-72
2021/12/06 01:42:48;;;;;;;22.02;10.43;;;;;;;2.29;100.00;100950.06;5030687;28;20021;-72
2021/12/06 01:45:14;;;;;;;16.30;10.25;;;;;;;2.29;100.00;100952.63;5033359;28;20106;-72
2021/12/06 01:47:40;;;;;;;19.35;10.10;;;;;;;2.28;100.00;100956.13;5036984;28;20029;-72
2021/12/06 01:50:09;;;;;;;14.98;9.40;;;;;;;2.27;100.00;100963.88;5037202;28;20133;-72
2021/12/06 01:52:52;;;;;;;19.25;10.82;;;;;;;2.33;100.00;100971.97;5028938;28;20026;-72
2021/12/06 01:55:25;;;;;;;16.33;10.57;;;;;;;2.25;100.00;100979.34;5034595;28;20476;-72
2021/12/06 01:57:53;;;;;;;;;;;;;;;2.18;100.00;100978.06;5023035;28;20041;-72
2021/12/06 02:00:31;;;;;;;18.25;10.25;;;;;;;2.17;100.00;100973.91;5012231;28;19919;-72
2021/12/06 02:03:03;;;;;;;18.77;11.25;;;;;;;2.16;100.00;100972.25;5044289;28;20236;-72
2021/12/06 02:05:36;;;;;;;19.73;11.82;;;;;;;2.17;100.00;100979.00;5025128;28;20056;-72
2021/12/06 02:08:04;;;;;;;18.15;12.20;;;;;;;2.17;100.00;100978.16;5034921;28;20037;-72
2021/12/06 02:10:30;;;;;;;19.75;12.32;;;;;;;2.17;100.00;100984.13;5027412;28;20064;-72
2021/12/06 02:12:56;;;;;;;30.25;14.07;;;;;;;2.18;100.00;100983.19;5025685;28;20025;-72
2021/12/06 02:18:14;;;;;;;24.42;13.43;;;;;;;2.18;100.00;100984.94;5024521;28;20025;-73
2021/12/06 02:20:49;;;;;;;20.30;13.85;;;;;;;2.17;100.00;100990.97;5020055;28;20045;-72
2021/12/06 02:23:15;;;;;;;25.40;15.00;;;;;;;2.18;100.00;101000.28;5034251;28;20068;-72
2021/12/06 02:25:41;;;;;;;24.17;14.07;;;;;;;2.16;100.00;101002.13;5009621;28;20137;-72
2021/12/06 02:28:07;;;;;;;24.60;13.98;;;;;;;2.15;100.00;101006.44;5005996;28;20127;-72
2021/12/06 02:30:33;;;;;;;23.80;13.73;;;;;;;2.14;100.00;101010.72;5025354;28;20077;-72
2021/12/06 02:32:59;;;;;;;23.63;13.68;;;;;;;2.13;100.00;101013.38;5025545;28;20128;-72
2021/12/06 02:35:27;;;;;;;20.75;13.90;;;;;;;2.12;100.00;101006.63;5021523;28;20026;-72
2021/12/06 02:37:56;;;;;;;24.60;13.95;;;;;;;2.11;100.00;101015.19;5024700;28;21244;-73
2021/12/06 02:40:27;;;;;;;24.02;13.90;;;;;;;2.10;100.00;101016.13;5033472;28;20029;-72
2021/12/06 02:42:53;;;;;;;21.35;13.52;;;;;;;2.10;100.00;101018.69;5011443;28;20511;-72
2021/12/06 02:45:21;;;;;;;19.73;13.27;;;;;;;2.08;100.00;101020.53;5037723;28;20434;-72
2021/12/06 02:47:52;;;;;;;23.42;14.15;;;;;;;2.07;100.00;101022.28;5025115;28;20037;-72
2021/12/06 02:50:23;;;;;;;24.13;12.88;;;;;;;2.07;100.00;101023.97;5002561;28;20103;-72
2021/12/06 02:52:49;;;;;;;23.15;14.20;;;;;;;2.05;100.00;101029.19;5039276;28;20026;-72
2021/12/06 02:58:13;;;;;;;24.85;14.48;;;;;;;2.03;100.00;101025.91;5024409;28;20602;-72
2021/12/06 03:00:42;;;;;;;21.02;13.18;;;;;;;2.02;100.00;101024.28;5026669;28;20120;-72
2021/12/06 03:03:08;;;;;;;22.00;12.93;;;;;;;2.01;100.00;101025.19;5008704;28;20038;-72
2021/12/06 03:05:34;;;;;;;21.02;12.77;;;;;;;2.00;100.00;101031.22;5024328;28;20042;-72
2021/12/06 03:08:00;;;;;;;23.60;12.60;;;;;;;2.00;100.00;101046.56;5026735;28;20028;-72
2021/12/06 03:10:27;;;;;;;24.27;14.23;;;;;;;1.99;100.00;101041.56;5024338;28;20030;-72
2021/12/06 03:12:53;;;;;;;21.05;12.68;;;;;;;1.98;100.00;101043.28;5017743;28;20033;-72
2021/12/06 03:15:19;;;;;;;21.35;13.13;;;;;;;1.96;100.00;101040.00;5024166;28;20046;-72
2021/12/06 03:17:46;;;;;;;22.77;14.15;;;;;;;1.95;100.00;101046.03;5023062;28;20336;-72
2021/12/06 03:20:14;;;;;;;28.35;14.70;;;;;;;1.94;100.00;101049.50;5024797;28;20060;-72
2021/12/06 03:22:43;;;;;;;20.20;11.93;;;;;;;1.92;100.00;101054.72;5027068;28;20095;-72
2021/12/06 03:25:11;;;;;;;21.60;12.80;;;;;;;1.91;100.00;101057.38;5031092;28;20056;-72
2021/12/06 03:27:37;;;;;;;21.10;12.27;;;;;;;1.89;100.00;101047.22;5021184;28;20029;-73
2021/12/06 03:30:06;;;;;;;21.77;13.18;;;;;;;1.87;99.57;101049.06;5026192;28;20035;-72
2021/12/06 03:32:32;;;;;;;21.63;13.45;;;;;;;1.86;100.00;101047.41;5004588;28;20515;-72
2021/12/06 03:34:59;;;;;;;23.38;12.60;;;;;;;1.85;100.00;101052.63;5027784;28;20037;-72
2021/12/06 03:37:25;;;;;;;23.25;13.27;;;;;;;1.83;100.00;101051.88;5034672;28;20029;-72
2021/12/06 03:39:50;;;;;;;21.23;12.18;;;;;;;1.80;99.98;101052.91;5031548;28;20052;-72
2021/12/06 03:42:23;;;;;;;19.00;12.68;;;;;;;1.79;100.00;101058.09;5028352;28;20137;-72
2021/12/06 03:44:52;;;;;;;23.52;12.25;;;;;;;1.75;99.79;101050.63;5019180;28;20048;-72
2021/12/06 03:47:30;;;;;;;20.65;12.82;;;;;;;1.73;99.96;101057.59;5030314;28;20033;-72
2021/12/06 03:49:59;;;;;;;20.65;12.70;;;;;;;1.71;99.92;101061.97;5018463;28;20033;-72
2021/12/06 03:52:27;;;;;;;24.05;12.07;;;;;;;1.70;99.96;101067.16;5005378;28;20396;-72
2021/12/06 03:54:55;;;;;;;19.20;12.50;;;;;;;1.68;99.95;101063.88;5025321;28;20025;-72
2021/12/06 03:57:21;;;;;;;23.42;13.20;;;;;;;1.66;99.73;101068.28;5032229;28;20048;-72
2021/12/06 03:59:49;;;;;;;19.05;13.65;;;;;;;1.61;99.75;101071.09;5027453;28;20033;-72
2021/12/06 04:02:15;;;;;;;25.45;12.95;;;;;;;1.58;99.69;101080.66;5028624;28;20037;-71
2021/12/06 04:04:41;;;;;;;27.55;14.82;;;;;;;1.55;99.63;101079.13;5032381;28;20030;-72
2021/12/06 04:07:08;;;;;;;28.15;15.50;;;;;;;1.52;99.32;101080.09;5031578;28;20395;-72
2021/12/06 04:09:36;;;;;;;23.10;13.27;;;;;;;1.46;99.46;101082.22;5031165;28;20048;-72
2021/12/06 04:12:06;;;;;;;31.73;15.98;;;;;;;1.40;99.27;101080.84;5029486;28;20025;-72
2021/12/06 04:14:33;;;;;;;28.60;13.57;;;;;;;1.32;99.11;101073.63;5026326;28;20124;-72
2021/12/06 04:16:59;;;;;;;46.05;18.42;;;;;;;1.26;98.92;101079.09;5025247;28;20476;-71
2021/12/06 04:19:26;;;;;;;44.80;18.42;;;;;;;1.22;99.00;101085.28;5026480;28;20076;-72
2021/12/06 04:21:53;;;;;;;43.63;17.75;;;;;;;1.21;99.20;101083.66;5026651;28;20025;-72
2021/12/06 04:24:18;;;;;;;28.58;15.18;;;;;;;1.22;99.09;101090.38;5017771;28;20515;-72
2021/12/06 04:26:45;;;;;;;26.73;13.65;;;;;;;1.20;99.08;101082.00;5022337;28;20028;-72
2021/12/06 04:29:13;;;;;;;23.52;13.35;;;;;;;1.20;99.37;101088.84;5025671;28;20034;-73
2021/12/06 04:31:50;;;;;;;20.52;11.98;;;;;;;1.19;99.46;101087.19;5034634;28;20116;-72
2021/12/06 04:34:18;;;;;;;18.83;11.55;;;;;;;1.15;99.26;101087.38;5010983;28;20095;-71
2021/12/06 04:36:45;;;;;;;19.65;11.60;;;;;;;1.13;99.00;101085.81;5018692;28;20025;-73
2021/12/06 04:39:14;;;;;;;20.10;11.77;;;;;;;1.11;99.00;101082.50;5035950;28;20098;-72
2021/12/06 04:41:42;;;;;;;21.30;12.27;;;;;;;1.08;99.10;101093.75;5029498;28;20124;-71
2021/12/06 04:44:08;;;;;;;20.48;12.77;;;;;;;1.06;98.98;101093.00;5027125;28;20025;-72
2021/12/06 04:46:35;;;;;;;17.67;11.88;;;;;;;1.03;98.47;101090.63;5028710;28;20092;-72
2021/12/06 04:49:02;;;;;;;20.67;11.82;;;;;;;1.02;98.83;101093.25;5026132;28;20031;-71
2021/12/06 04:51:29;;;;;;;22.75;12.43;;;;;;;0.99;98.65;101101.09;5027295;28;20021;-71
2021/12/06 04:53:55;;;;;;;19.50;11.00;;;;;;;0.95;98.27;101108.94;5029225;28;20025;-72
2021/12/06 04:56:26;;;;;;;18.27;11.73;;;;;;;0.91;98.43;101106.66;5028206;28;20398;-72
2021/12/06 04:59:08;;;;;;;19.13;11.18;;;;;;;0.88;98.08;101114.47;5021843;28;20029;-72
2021/12/06 05:01:35;;;;;;;18.45;11.55;;;;;;;0.84;97.81;101115.56;5022298;28;20136;-72
2021/12/06 05:04:10;;;;;;;18.23;11.23;;;;;;;0.81;97.41;101118.25;5029471;28;20535;-72
2021/12/06 05:06:40;;;;;;;20.75;11.82;;;;;;;0.71;97.55;101118.78;5023524;28;20033;-72
2021/12/06 05:09:18;;;;;;;18.05;10.63;;;;;;;0.63;96.58;101130.31;5030733;28;20036;-72
2021/12/06 05:11:44;;;;;;;19.25;11.52;;;;;;;0.55;97.36;101126.44;5013057;28;20105;-72
2021/12/06 05:14:11;;;;;;;15.90;11.02;;;;;;;0.52;97.00;101131.72;5032301;28;20515;-71
2021/12/06 05:16:36;;;;;;;14.93;10.43;;;;;;;0.48;97.16;101139.63;5023372;28;20033;-72
2021/12/06 05:19:04;;;;;;;19.65;11.85;;;;;;;0.47;97.31;101146.47;5009730;28;20113;-72
2021/12/06 05:21:30;;;;;;;16.67;11.02;;;;;;;0.45;97.08;101150.81;5020764;28;20028;-72
2021/12/06 05:23:56;;;;;;;18.40;11.30;;;;;;;0.38;97.00;101147.78;5011991;28;20538;-72
2021/12/06 05:26:22;;;;;;;16.50;10.35;;;;;;;0.31;97.04;101148.19;5042820;28;20025;-72
2021/12/06 05:28:50;;;;;;;21.55;12.32;;;;;;;0.27;96.54;101151.81;5026806;28;20384;-72
2021/12/06 05:31:19;;;;;;;14.50;10.23;;;;;;;0.25;97.22;101151.06;5026900;28;20087;-72
2021/12/06 05:33:51;;;;;;;17.20;10.55;;;;;;;0.19;96.51;101150.47;5027826;28;20176;-72
2021/12/06 05:36:16;;;;;;;20.35;11.20;;;;;;;0.13;96.62;101148.25;5028754;28;20041;-72
2021/12/06 05:38:43;;;;;;;25.50;10.18;;;;;;;0.13;96.91;101148.25;5011936;28;20033;-72
2021/12/06 05:41:08;;;;;;;20.90;11.10;;;;;;;0.12;96.93;101144.03;5027389;28;20455;-72
2021/12/06 05:43:34;;;;;;;21.23;11.75;;;;;;;0.08;96.87;101154.50;5027870;28;20298;-72
2021/12/06 05:45:59;;;;;;;21.88;12.18;;;;;;;0.08;96.84;101151.94;5024857;28;20133;-73
2021/12/06 05:48:25;;;;;;;20.55;11.80;;;;;;;0.06;96.74;101162.22;5028856;28;20042;-71
2021/12/06 05:50:51;;;;;;;18.30;12.18;;;;;;;0.05;96.65;101160.56;5027283;28;20033;-72
2021/12/06 05:53:17;;;;;;;18.40;11.57;;;;;;;0.04;97.04;101169.13;5028561;28;20044;-72
2021/12/06 05:55:43;;;;;;;21.70;11.18;;;;;;;0.02;97.05;101170.94;5015535;28;20338;-72
2021/12/06 05:58:11;;;;;;;19.75;10.48;;;;;;;0.00;97.33;101167.66;5030886;28;20048;-72
2021/12/06 06:00:38;;;;;;;19.70;12.27;;;;;;;-0.02;97.13;101166.88;5032858;28;20040;-72
2021/12/06 06:03:06;;;;;;;16.48;10.63;;;;;;;-0.03;96.96;101171.16;5030834;28;20083;-72
2021/12/06 06:05:33;;;;;;;19.98;11.50;;;;;;;-0.05;97.00;101174.69;5033464;28;20033;-72
2021/12/06 06:07:58;;;;;;;19.98;11.20;;;;;;;-0.08;96.79;101179.94;5029904;28;20033;-72
2021/12/06 06:10:24;;;;;;;18.75;11.25;;;;;;;-0.15;96.94;101178.59;5024757;28;20041;-72
2021/12/06 06:12:50;;;;;;;18.42;10.85;;;;;;;-0.22;96.80;101184.00;5029532;28;20056;-73
2021/12/06 06:15:15;;;;;;;20.48;11.32;;;;;;;-0.25;96.58;101193.53;5026396;28;20102;-71
2021/12/06 06:17:43;;;;;;;23.80;11.88;;;;;;;-0.30;96.77;101188.69;5026702;28;20112;-72
2021/12/06 06:20:18;;;;;;;18.95;11.05;;;;;;;-0.34;96.19;101199.09;5029692;28;20116;-72
2021/12/06 06:22:44;;;;;;;20.95;11.07;;;;;;;-0.40;96.43;101193.41;5026944;28;20115;-72
2021/12/06 06:25:10;;;;;;;21.52;11.85;;;;;;;-0.45;95.85;101187.72;5035128;28;20044;-72
2021/12/06 06:27:36;;;;;;;22.88;12.13;;;;;;;-0.50;95.83;101197.28;5029593;28;20120;-72
2021/12/06 06:30:02;;;;;;;22.63;12.68;;;;;;;-0.56;96.15;101195.06;5040076;28;20115;-71
2021/12/06 06:32:27;;;;;;;18.17;10.73;;;;;;;-0.62;96.21;101197.91;5028777;28;20068;-71
2021/12/06 06:34:54;;;;;;;18.92;11.23;;;;;;;-0.66;96.33;101198.94;5025426;28;20021;-72
2021/12/06 06:37:20;;;;;;;18.15;12.25;;;;;;;-0.68;96.27;101195.63;5033986;28;20043;-72
2021/12/06 06:39:46;;;;;;;28.50;11.95;;;;;;;-0.74;96.13;101195.94;5036277;28;20029;-72
2021/12/06 06:42:11;;;;;;;24.80;13.55;;;;;;;-0.78;96.25;101195.25;5031452;28;20059;-72
2021/12/06 06:44:37;;;;;;;22.35;12.40;;;;;;;-0.80;96.36;101189.41;5031490;28;20033;-72
2021/12/06 06:47:02;;;;;;;29.77;14.02;;;;;;;-0.80;96.78;101186.88;5035319;28;20502;-72
2021/12/06 06:49:31;;;;;;;28.92;14.45;;;;;;;-0.82;96.98;101184.38;5029577;28;20029;-71
2021/12/06 06:51:58;;;;;;;28.80;15.35;;;;;;;-0.79;97.31;101186.78;5027150;28;20139;-71
2021/12/06 06:54:24;;;;;;;26.08;13.95;;;;;;;-0.80;97.25;101191.97;5023694;28;20065;-72
2021/12/06 06:56:50;;;;;;;27.63;15.10;;;;;;;-0.83;97.62;101205.66;5028519;28;20107;-72
2021/12/06 06:59:15;;;;;;;25.83;15.52;;;;;;;-0.83;97.79;101200.56;5029609;28;20124;-72
2021/12/06 07:01:41;;;;;;;27.58;15.38;;;;;;;-0.82;98.20;101204.75;5024427;28;20037;-72
2021/12/06 07:04:08;;;;;;;26.98;14.73;;;;;;;-0.81;98.16;101201.31;5031864;28;20029;-72
2021/12/06 07:06:33;;;;;;;23.52;15.25;;;;;;;-0.79;98.42;101208.91;5008746;28;20522;-71
2021/12/06 07:08:59;;;;;;;25.45;15.13;;;;;;;-0.77;98.34;101193.53;5038236;28;20025;-71
2021/12/06 07:11:25;;;;;;;27.58;16.23;;;;;;;-0.76;98.45;101201.09;5021593;28;20377;-72
2021/12/06 07:13:51;;;;;;;28.58;15.82;;;;;;;-0.74;98.97;101201.03;5032977;28;20024;-72
2021/12/06 07:16:18;;;;;;;28.15;15.30;;;;;;;-0.74;98.86;101206.94;5027123;28;20087;-71
2021/12/06 07:18:45;;;;;;;26.77;14.57;;;;;;;-0.74;99.21;101206.13;5031376;28;20447;-72
2021/12/06 07:21:12;;;;;;;31.27;16.30;;;;;;;-0.74;99.31;101203.56;5026861;28;20432;-72
2021/12/06 07:23:38;;;;;;;33.28;17.05;;;;;;;-0.73;99.31;101213.69;5028248;28;20438;-72
2021/12/06 07:26:09;;;;;;;32.53;17.17;;;;;;;-0.72;99.13;101211.97;5029052;28;20219;-71
2021/12/06 07:28:36;;;;;;;44.95;20.73;;;;;;;-0.70;99.66;101223.72;5015123;28;20387;-72
2021/12/06 07:31:05;;;;;;;36.00;16.67;;;;;;;-0.72;99.83;101228.06;5033762;28;20138;-73
2021/12/06 07:33:34;;;;;;;36.40;17.88;;;;;;;-0.73;99.79;101223.88;5029635;28;20033;-72
2021/12/06 07:36:01;;;;;;;44.03;19.08;;;;;;;-0.71;99.65;101228.91;5024834;28;20040;-72
2021/12/06 07:38:27;;;;;;;40.60;18.98;;;;;;;-0.69;100.00;101230.47;5028884;28;20034;-71
2021/12/06 07:40:52;;;;;;;37.05;19.58;;;;;;;-0.68;99.82;101234.69;5026812;28;20475;-72
2021/12/06 07:43:18;;;;;;;42.45;18.77;;;;;;;-0.66;99.95;101237.13;5026006;28;20077;-72
2021/12/06 07:45:45;;;;;;;36.05;17.92;;;;;;;-0.65;100.00;101231.16;5024667;28;20034;-72
2021/12/06 07:48:10;;;;;;;34.35;18.25;;;;;;;-0.64;99.99;101230.25;5026787;28;20048;-71
2021/12/06 07:50:36;;;;;;;32.00;17.05;;;;;;;-0.63;99.99;101229.34;5025292;28;20055;-72
2021/12/06 07:53:02;;;;;;;29.15;16.10;;;;;;;-0.62;100.00;101221.66;5026877;28;20033;-72
2021/12/06 07:55:31;;;;;;;31.48;17.35;;;;;;;-0.59;100.00;101220.66;5027293;28;20493;-72
2021/12/06 07:57:58;;;;;;;29.70;15.90;;;;;;;-0.55;100.00;101226.44;5028597;28;20488;-72
2021/12/06 08:00:27;;;;;;;31.98;17.00;;;;;;;-0.52;100.00;101224.56;5031315;28;20036;-72
2021/12/06 08:02:53;;;;;;;28.40;16.13;;;;;;;-0.46;100.00;101226.00;5030077;28;20041;-71
2021/12/06 08:05:35;;;;;;;28.80;16.58;;;;;;;-0.43;100.00;101231.78;5035121;28;20072;-72
2021/12/06 08:08:08;;;;;;;27.50;16.33;;;;;;;-0.37;100.00;101229.84;5026620;28;20076;-71
2021/12/06 08:10:37;;;;;;;26.25;15.77;;;;;;;-0.32;100.00;101230.41;5036624;28;20038;-72
2021/12/06 08:13:04;;;;;;;25.50;15.65;;;;;;;-0.28;100.00;101231.94;5034328;28;20053;-72
2021/12/06 08:15:30;;;;;;;26.45;16.25;;;;;;;-0.24;100.00;101236.78;5035642;28;20033;-71
2021/12/06 08:17:56;;;;;;;33.95;17.80;;;;;;;-0.19;100.00;101228.91;5016801;28;20407;-72
2021/12/06 08:20:21;;;;;;;31.85;18.15;;;;;;;-0.13;100.00;101230.34;5037397;28;20049;-72
2021/12/06 08:22:47;;;;;;;32.88;17.83;;;;;;;-0.10;100.00;101245.47;5032527;28;20045;-72
2021/12/06 08:25:14;;;;;;;31.20;18.52;;;;;;;-0.09;100.00;101249.69;5021436;28;20507;-72
2021/12/06 08:27:40;;;;;;;31.55;17.85;;;;;;;-0.09;100.00;101249.69;5030065;28;20030;-72
2021/12/06 08:30:06;;;;;;;32.35;16.90;;;;;;;-0.08;100.00;101251.34;5030192;28;20482;-72
2021/12/06 08:32:32;;;;;;;29.27;17.02;;;;;;;-0.07;100.00;101247.91;5029141;28;20022;-73
2021/12/06 08:34:58;;;;;;;28.42;15.88;;;;;;;-0.07;100.00;101251.25;5026518;28;20369;-72
2021/12/06 08:37:25;;;;;;;33.58;16.13;;;;;;;-0.03;100.00;101251.94;5029340;28;20033;-73
2021/12/06 08:39:51;;;;;;;31.48;17.40;;;;;;;0.01;100.00;101257.72;5029250;28;20404;-72
2021/12/06 08:42:17;;;;;;;39.17;19.63;;;;;;;0.08;100.00;101247.13;5030226;28;20041;-73
2021/12/06 08:44:42;;;;;;;34.97;19.67;;;;;;;0.14;100.00;101249.34;5029889;28;20025;-72
2021/12/06 08:47:08;;;;;;;37.35;18.98;;;;;;;0.18;100.00;101245.75;5030248;28;20037;-72
2021/12/06 08:49:34;;;;;;;34.78;18.25;;;;;;;0.23;100.00;101250.63;5029819;28;20048;-73
2021/12/06 08:52:00;;;;;;;34.72;18.98;;;;;;;0.35;100.00;101244.06;5028626;28;20020;-73
2021/12/06 08:54:29;;;;;;;36.47;19.45;;;;;;;0.44;100.00;101242.78;5029826;28;20037;-72
2021/12/06 08:56:56;;;;;;;40.63;20.40;;;;;;;0.48;100.00;101239.97;5035371;28;20108;-73
2021/12/06 08:59:22;;;;;;;47.40;21.20;;;;;;;0.43;100.00;101236.81;5036586;28;20072;-72
2021/12/06 09:01:48;;;;;;;50.08;22.70;;;;;;;0.45;100.00;101240.13;5029353;28;20435;-72
2021/12/06 09:04:14;;;;;;;60.20;24.92;;;;;;;0.48;100.00;101234.06;5027115;28;20064;-73
2021/12/06 09:06:44;;;;;;;62.78;24.58;;;;;;;0.65;100.00;101231.44;5030263;28;20502;-72
2021/12/06 09:09:12;;;;;;;62.10;25.42;;;;;;;0.57;100.00;101234.38;5034306;28;20498;-74
2021/12/06 09:11:39;;;;;;;59.10;25.23;;;;;;;0.68;100.00;101230.44;5029240;28;20037;-73
2021/12/06 09:14:06;;;;;;;56.22;25.17;;;;;;;0.66;100.00;101234.78;5028368;28;20496;-73
2021/12/06 09:16:31;;;;;;;55.42;24.73;;;;;;;0.64;100.00;101236.59;5020402;28;20030;-73
2021/12/06 09:19:00;;;;;;;58.25;24.30;;;;;;;0.66;100.00;101238.19;5028518;28;20519;-72
2021/12/06 09:21:26;;;;;;;59.33;26.17;;;;;;;0.67;100.00;101232.16;5028693;28;20033;-72
2021/12/06 09:23:54;;;;;;;63.00;26.05;;;;;;;0.67;100.00;101231.34;5027478;28;20029;-72
2021/12/06 09:26:20;;;;;;;60.58;24.70;;;;;;;0.64;100.00;101237.47;5033303;28;20041;-73
2021/12/06 09:28:47;;;;;;;62.35;25.25;;;;;;;0.68;100.00;101238.09;5032389;28;20033;-72
2021/12/06 09:31:15;;;;;;;61.17;25.00;;;;;;;0.70;100.00;101243.97;5037653;28;20116;-72
2021/12/06 09:33:41;;;;;;;67.93;26.15;;;;;;;0.75;100.00;101247.06;5041581;28;20321;-72
2021/12/06 09:36:07;;;;;;;60.60;25.30;;;;;;;0.82;100.00;101257.81;5033028;28;20464;-73
2021/12/06 09:38:38;;;;;;;76.05;28.40;;;;;;;0.95;100.00;101257.06;5033083;28;20276;-72
2021/12/06 09:41:11;;;;;;;77.10;28.75;;;;;;;1.09;100.00;101258.03;5032172;28;20029;-74
2021/12/06 09:43:39;;;;;;;75.63;29.30;;;;;;;1.08;100.00;101257.22;5034312;28;20034;-73
2021/12/06 09:46:07;;;;;;;82.50;28.27;;;;;;;1.14;100.00;101253.50;5034739;28;20039;-72
2021/12/06 09:48:34;;;;;;;86.05;30.08;;;;;;;1.26;100.00;101267.34;5035162;28;20017;-72
2021/12/06 09:51:06;;;;;;;84.00;30.17;;;;;;;1.28;100.00;101262.97;5035390;28;20107;-72
2021/12/06 09:53:35;;;;;;;97.53;30.40;;;;;;;1.23;100.00;101258.13;5029501;28;20029;-72
2021/12/06 09:56:04;;;;;;;92.07;29.73;;;;;;;1.35;100.00;101265.09;5042931;28;20478;-73
2021/12/06 09:58:30;;;;;;;75.65;28.13;;;;;;;1.36;100.00;101265.94;5033055;28;20087;-72
2021/12/06 10:01:08;;;;;;;74.53;27.10;;;;;;;1.30;100.00;101268.81;5040261;28;20032;-72
2021/12/06 10:03:35;;;;;;;80.95;27.98;;;;;;;1.22;100.00;101261.56;5034314;28;20132;-72
2021/12/06 10:06:04;;;;;;;81.40;28.15;;;;;;;1.24;100.00;101264.03;5035171;28;20039;-72
2021/12/06 10:08:32;;;;;;;81.65;27.00;;;;;;;1.14;100.00;101261.97;5031818;28;20037;-72
2021/12/06 10:10:58;;;;;;;80.43;26.25;;;;;;;1.08;100.00;101259.78;5033772;28;20034;-73
2021/12/06 10:13:24;;;;;;;90.60;27.75;;;;;;;1.26;100.00;101259.66;5038346;28;20029;-73
2021/12/06 10:15:52;;;;;;;91.22;28.48;;;;;;;1.19;100.00;101259.19;5039271;28;20150;-72
2021/12/06 10:18:20;;;;;;;98.63;31.83;;;;;;;1.28;100.00;101253.59;5033132;28;20534;-72
2021/12/06 10:20:47;;;;;;;90.68;28.50;;;;;;;1.28;100.00;101256.13;5036214;28;20032;-72
2021/12/06 10:23:14;;;;;;;94.70;29.55;;;;;;;1.39;100.00;101252.97;5040555;28;20028;-73
2021/12/06 10:25:44;;;;;;;91.55;30.33;;;;;;;1.52;100.00;101253.09;5036366;28;20026;-72
2021/12/06 10:28:11;;;;;;;103.15;30.40;;;;;;;1.47;100.00;101255.94;5035654;28;20037;-72
2021/12/06 10:30:44;;;;;;;99.50;29.90;;;;;;;1.47;100.00;101245.72;5021822;28;20385;-72
2021/12/06 10:33:11;;;;;;;;;;;;;;;1.58;100.00;101242.53;5028428;28;20929;-72
2021/12/06 10:35:46;;;;;;;92.35;29.55;;;;;;;1.54;100.00;101236.78;5025902;28;19917;-72
2021/12/06 10:38:24;;;;;;;95.63;28.50;;;;;;;1.47;100.00;101237.19;5008316;28;20116;-72
2021/12/06 10:40:56;;;;;;;99.13;29.95;;;;;;;1.49;100.00;101225.19;5027434;28;20030;-72
2021/12/06 10:43:22;;;;;;;89.07;28.48;;;;;;;1.57;100.00;101220.44;5017252;28;20052;-72
2021/12/06 10:45:50;;;;;;;99.60;29.92;;;;;;;1.57;100.00;101233.22;5030479;28;20665;-73
2021/12/06 10:48:27;;;;;;;113.40;30.70;;;;;;;1.54;100.00;101229.13;5029484;28;20123;-72
2021/12/06 10:50:53;;;;;;;91.60;28.92;;;;;;;1.53;100.00;101224.09;5021786;28;20072;-73
2021/12/06 10:53:34;;;;;;;90.00;29.75;;;;;;;1.67;100.00;101215.63;5023048;28;20106;-72
2021/12/06 10:56:00;;;;;;;90.93;28.98;;;;;;;1.65;100.00;101217.44;5030314;28;20396;-73
2021/12/06 10:58:30;;;;;;;90.13;28.42;;;;;;;1.60;100.00;101222.84;5035719;28;20047;-73
2021/12/06 11:01:07;;;;;;;99.97;28.50;;;;;;;1.62;100.00;101220.19;5027397;28;20075;-72
2021/12/06 11:03:54;;;;;;;88.78;29.48;;;;;;;1.61;100.00;101216.00;5026412;28;20037;-72
2021/12/06 11:06:31;;;;;;;77.50;25.50;;;;;;;1.63;100.00;101211.59;5025296;28;20029;-73
2021/12/06 11:09:00;;;;;;;90.68;27.92;;;;;;;1.75;100.00;101206.63;5026526;28;20034;-72
2021/12/06 11:11:30;;;;;;;87.28;28.38;;;;;;;1.75;100.00;101203.22;5026332;28;20025;-72
2021/12/06 11:13:59;;;;;;;81.25;27.00;;;;;;;1.75;100.00;101200.66;5032130;28;20034;-73
2021/12/06 11:16:28;;;;;;;96.90;28.98;;;;;;;1.78;100.00;101197.94;5025801;28;20040;-72
2021/12/06 11:19:04;;;;;;;91.60;28.95;;;;;;;1.91;100.00;101187.81;5025830;28;20075;-72
2021/12/06 11:21:35;;;;;;;92.82;28.38;;;;;;;1.97;100.00;101184.06;5032960;28;20021;-72
2021/12/06 11:24:08;;;;;;;98.78;28.33;;;;;;;2.00;100.00;101183.88;5032128;28;20036;-72
2021/12/06 11:26:40;;;;;;;95.97;29.10;;;;;;;2.08;100.00;101174.84;5027506;28;20475;-72
2021/12/06 11:29:13;;;;;;;97.68;32.92;;;;;;;2.11;100.00;101167.00;5029991;28;20033;-73
2021/12/06 11:31:43;;;;;;;89.50;31.58;;;;;;;2.28;100.00;101160.00;5032434;28;20119;-72
2021/12/06 11:34:09;;;;;;;85.93;31.48;;;;;;;2.21;100.00;101161.31;5028882;28;20029;-72